sensor_id;sensor_type;location;lat;lon;timestamp;temperature;humidity
23233;DHT22;11785;49.500;8.288;2023-02-17T00:01:07;11.90;78.60
23233;DHT22;11785;49.500;8.288;2023-02-17T00:03:33;11.90;79.10
23233;DHT22;11785;49.500;8.288;2023-02-17T00:05:58;11.90;80.20
23233;DHT22;11785;49.500;8.288;2023-02-17T00:08:29;11.90;80.20
23233;DHT22;11785;49.500;8.288;2023-02-17T00:10:56;11.90;79.30
23233;DHT22;11785;49.500;8.288;2023-02-17T00:13:22;11.90;80.10
23233;DHT22;11785;49.500;8.288;2023-02-17T00:15:47;11.90;79.40
23233;DHT22;11785;49.500;8.288;2023-02-17T00:18:13;12.10;78.40
23233;DHT22;11785;49.500;8.288;2023-02-17T00:20:39;12.00;79.30
23233;DHT22;11785;49.500;8.288;2023-02-17T00:23:04;11.90;80.40
23233;DHT22;11785;49.500;8.288;2023-02-17T00:25:30;11.80;81.70
23233;DHT22;11785;49.500;8.288;2023-02-17T00:27:55;11.90;80.70
23233;DHT22;11785;49.500;8.288;2023-02-17T00:30:21;11.80;81.90
23233;DHT22;11785;49.500;8.288;2023-02-17T00:32:46;11.80;81.90
23233;DHT22;11785;49.500;8.288;2023-02-17T00:35:12;11.70;82.70
23233;DHT22;11785;49.500;8.288;2023-02-17T00:37:37;11.70;82.80
23233;DHT22;11785;49.500;8.288;2023-02-17T00:40:05;11.80;82.60
23233;DHT22;11785;49.500;8.288;2023-02-17T00:42:31;12.00;80.70
23233;DHT22;11785;49.500;8.288;2023-02-17T00:44:56;12.00;80.90
23233;DHT22;11785;49.500;8.288;2023-02-17T00:47:22;12.00;81.00
23233;DHT22;11785;49.500;8.288;2023-02-17T00:49:47;11.90;81.70
23233;DHT22;11785;49.500;8.288;2023-02-17T00:52:13;11.80;82.90
23233;DHT22;11785;49.500;8.288;2023-02-17T00:54:38;11.80;82.70
23233;DHT22;11785;49.500;8.288;2023-02-17T00:57:05;11.80;82.50
23233;DHT22;11785;49.500;8.288;2023-02-17T00:59:30;11.70;83.60
23233;DHT22;11785;49.500;8.288;2023-02-17T01:01:56;11.80;82.70
23233;DHT22;11785;49.500;8.288;2023-02-17T01:04:21;11.80;82.40
23233;DHT22;11785;49.500;8.288;2023-02-17T01:06:47;11.80;82.80
23233;DHT22;11785;49.500;8.288;2023-02-17T01:09:13;11.80;82.50
23233;DHT22;11785;49.500;8.288;2023-02-17T01:11:39;11.70;83.60
23233;DHT22;11785;49.500;8.288;2023-02-17T01:14:05;11.70;83.30
23233;DHT22;11785;49.500;8.288;2023-02-17T01:16:34;11.70;83.60
23233;DHT22;11785;49.500;8.288;2023-02-17T01:19:03;11.60;84.90
23233;DHT22;11785;49.500;8.288;2023-02-17T01:21:30;11.60;84.70
23233;DHT22;11785;49.500;8.288;2023-02-17T01:23:58;11.60;84.30
23233;DHT22;11785;49.500;8.288;2023-02-17T01:26:26;11.60;84.40
23233;DHT22;11785;49.500;8.288;2023-02-17T01:28:53;11.70;83.70
23233;DHT22;11785;49.500;8.288;2023-02-17T01:31:20;11.80;82.80
23233;DHT22;11785;49.500;8.288;2023-02-17T01:33:46;11.80;82.80
23233;DHT22;11785;49.500;8.288;2023-02-17T01:36:15;11.70;84.00
23233;DHT22;11785;49.500;8.288;2023-02-17T01:38:41;11.60;84.90
23233;DHT22;11785;49.500;8.288;2023-02-17T01:41:07;11.60;85.30
23233;DHT22;11785;49.500;8.288;2023-02-17T01:43:33;11.60;85.20
23233;DHT22;11785;49.500;8.288;2023-02-17T01:46:00;11.70;84.40
23233;DHT22;11785;49.500;8.288;2023-02-17T01:51:20;11.60;85.70
23233;DHT22;11785;49.500;8.288;2023-02-17T01:53:51;11.60;86.40
23233;DHT22;11785;49.500;8.288;2023-02-17T01:56:18;11.60;86.60
23233;DHT22;11785;49.500;8.288;2023-02-17T01:58:48;11.60;86.60
23233;DHT22;11785;49.500;8.288;2023-02-17T02:01:14;11.60;86.70
23233;DHT22;11785;49.500;8.288;2023-02-17T02:03:40;11.60;86.80
23233;DHT22;11785;49.500;8.288;2023-02-17T02:06:11;11.50;87.40
23233;DHT22;11785;49.500;8.288;2023-02-17T02:08:43;11.50;88.60
23233;DHT22;11785;49.500;8.288;2023-02-17T02:11:11;11.50;88.80
23233;DHT22;11785;49.500;8.288;2023-02-17T02:13:37;11.50;89.40
23233;DHT22;11785;49.500;8.288;2023-02-17T02:16:13;11.50;89.60
23233;DHT22;11785;49.500;8.288;2023-02-17T02:18:53;11.50;89.40
23233;DHT22;11785;49.500;8.288;2023-02-17T02:21:38;11.50;89.20
23233;DHT22;11785;49.500;8.288;2023-02-17T02:27:28;11.50;89.30
23233;DHT22;11785;49.500;8.288;2023-02-17T02:30:21;11.50;89.20
23233;DHT22;11785;49.500;8.288;2023-02-17T02:33:02;11.50;89.60
23233;DHT22;11785;49.500;8.288;2023-02-17T02:38:40;11.20;91.00
23233;DHT22;11785;49.500;8.288;2023-02-17T02:41:16;11.10;91.50
23233;DHT22;11785;49.500;8.288;2023-02-17T02:43:43;11.10;91.90
23233;DHT22;11785;49.500;8.288;2023-02-17T02:46:09;11.10;91.70
23233;DHT22;11785;49.500;8.288;2023-02-17T02:48:35;11.20;91.70
23233;DHT22;11785;49.500;8.288;2023-02-17T02:59:22;11.40;91.20
23233;DHT22;11785;49.500;8.288;2023-02-17T03:04:37;11.40;91.40
23233;DHT22;11785;49.500;8.288;2023-02-17T03:07:20;11.40;91.60
23233;DHT22;11785;49.500;8.288;2023-02-17T03:09:52;11.40;91.80
23233;DHT22;11785;49.500;8.288;2023-02-17T03:12:19;11.40;91.70
23233;DHT22;11785;49.500;8.288;2023-02-17T03:14:48;11.40;92.00
23233;DHT22;11785;49.500;8.288;2023-02-17T03:17:14;11.40;92.20
23233;DHT22;11785;49.500;8.288;2023-02-17T03:19:40;11.40;92.40
23233;DHT22;11785;49.500;8.288;2023-02-17T03:22:10;11.30;92.70
23233;DHT22;11785;49.500;8.288;2023-02-17T03:24:38;11.30;92.90
23233;DHT22;11785;49.500;8.288;2023-02-17T03:27:04;11.20;93.10
23233;DHT22;11785;49.500;8.288;2023-02-17T03:29:29;11.20;93.00
23233;DHT22;11785;49.500;8.288;2023-02-17T03:31:55;11.30;92.80
23233;DHT22;11785;49.500;8.288;2023-02-17T03:34:21;11.40;92.50
23233;DHT22;11785;49.500;8.288;2023-02-17T03:36:46;11.30;92.70
23233;DHT22;11785;49.500;8.288;2023-02-17T03:39:12;11.30;93.10
23233;DHT22;11785;49.500;8.288;2023-02-17T03:41:37;11.20;93.20
23233;DHT22;11785;49.500;8.288;2023-02-17T03:44:03;11.30;92.90
23233;DHT22;11785;49.500;8.288;2023-02-17T03:46:28;11.30;93.10
23233;DHT22;11785;49.500;8.288;2023-02-17T03:48:54;11.20;93.60
23233;DHT22;11785;49.500;8.288;2023-02-17T03:51:22;11.20;93.40
23233;DHT22;11785;49.500;8.288;2023-02-17T03:53:48;11.20;93.60
23233;DHT22;11785;49.500;8.288;2023-02-17T03:56:15;11.10;93.90
23233;DHT22;11785;49.500;8.288;2023-02-17T03:58:41;11.10;94.10
23233;DHT22;11785;49.500;8.288;2023-02-17T04:01:08;11.10;94.30
23233;DHT22;11785;49.500;8.288;2023-02-17T04:03:34;11.10;94.20
23233;DHT22;11785;49.500;8.288;2023-02-17T04:06:00;11.10;94.00
23233;DHT22;11785;49.500;8.288;2023-02-17T04:08:26;11.10;94.00
23233;DHT22;11785;49.500;8.288;2023-02-17T04:10:53;11.10;93.90
23233;DHT22;11785;49.500;8.288;2023-02-17T04:13:19;11.10;94.10
23233;DHT22;11785;49.500;8.288;2023-02-17T04:15:45;11.10;93.90
23233;DHT22;11785;49.500;8.288;2023-02-17T04:18:11;11.10;94.10
23233;DHT22;11785;49.500;8.288;2023-02-17T04:20:37;11.10;94.00
23233;DHT22;11785;49.500;8.288;2023-02-17T04:23:02;11.10;94.00
23233;DHT22;11785;49.500;8.288;2023-02-17T04:25:28;11.10;94.20
23233;DHT22;11785;49.500;8.288;2023-02-17T04:27:53;11.00;94.40
23233;DHT22;11785;49.500;8.288;2023-02-17T04:30:19;11.10;94.00
23233;DHT22;11785;49.500;8.288;2023-02-17T04:32:45;11.00;94.50
23233;DHT22;11785;49.500;8.288;2023-02-17T04:35:10;11.00;94.50
23233;DHT22;11785;49.500;8.288;2023-02-17T04:37:36;11.10;94.20
23233;DHT22;11785;49.500;8.288;2023-02-17T04:40:01;11.10;94.20
23233;DHT22;11785;49.500;8.288;2023-02-17T04:42:28;11.10;94.10
23233;DHT22;11785;49.500;8.288;2023-02-17T04:44:53;11.10;94.30
23233;DHT22;11785;49.500;8.288;2023-02-17T04:47:19;11.00;94.90
23233;DHT22;11785;49.500;8.288;2023-02-17T04:49:44;11.00;94.60
23233;DHT22;11785;49.500;8.288;2023-02-17T04:52:10;11.00;94.70
23233;DHT22;11785;49.500;8.288;2023-02-17T04:54:35;11.00;94.40
23233;DHT22;11785;49.500;8.288;2023-02-17T04:57:01;11.10;94.20
23233;DHT22;11785;49.500;8.288;2023-02-17T04:59:26;11.00;94.40
23233;DHT22;11785;49.500;8.288;2023-02-17T05:01:52;11.00;94.70
23233;DHT22;11785;49.500;8.288;2023-02-17T05:04:17;11.00;94.60
23233;DHT22;11785;49.500;8.288;2023-02-17T05:06:43;11.00;94.50
23233;DHT22;11785;49.500;8.288;2023-02-17T05:09:09;11.00;94.80
23233;DHT22;11785;49.500;8.288;2023-02-17T05:11:34;11.00;94.60
23233;DHT22;11785;49.500;8.288;2023-02-17T05:14:00;11.00;94.50
23233;DHT22;11785;49.500;8.288;2023-02-17T05:16:25;11.10;94.00
23233;DHT22;11785;49.500;8.288;2023-02-17T05:18:51;11.10;94.20
23233;DHT22;11785;49.500;8.288;2023-02-17T05:21:16;11.00;94.20
23233;DHT22;11785;49.500;8.288;2023-02-17T05:23:42;11.00;94.50
23233;DHT22;11785;49.500;8.288;2023-02-17T05:26:08;11.00;93.90
23233;DHT22;11785;49.500;8.288;2023-02-17T05:28:35;11.00;94.20
23233;DHT22;11785;49.500;8.288;2023-02-17T05:31:01;10.90;94.30
23233;DHT22;11785;49.500;8.288;2023-02-17T05:33:28;11.00;94.00
23233;DHT22;11785;49.500;8.288;2023-02-17T05:35:53;11.00;94.50
23233;DHT22;11785;49.500;8.288;2023-02-17T05:38:19;11.00;94.40
23233;DHT22;11785;49.500;8.288;2023-02-17T05:40:45;11.00;94.40
23233;DHT22;11785;49.500;8.288;2023-02-17T05:43:11;11.00;94.40
23233;DHT22;11785;49.500;8.288;2023-02-17T05:45:36;11.00;94.90
23233;DHT22;11785;49.500;8.288;2023-02-17T05:48:02;11.00;94.50
23233;DHT22;11785;49.500;8.288;2023-02-17T05:50:27;11.00;94.40
23233;DHT22;11785;49.500;8.288;2023-02-17T05:52:53;11.00;94.70
23233;DHT22;11785;49.500;8.288;2023-02-17T05:55:19;10.90;94.40
23233;DHT22;11785;49.500;8.288;2023-02-17T05:57:46;10.90;94.50
23233;DHT22;11785;49.500;8.288;2023-02-17T06:00:12;10.90;94.90
23233;DHT22;11785;49.500;8.288;2023-02-17T06:02:38;10.90;94.80
23233;DHT22;11785;49.500;8.288;2023-02-17T06:05:04;10.80;94.90
23233;DHT22;11785;49.500;8.288;2023-02-17T06:07:29;10.90;95.00
23233;DHT22;11785;49.500;8.288;2023-02-17T06:09:55;10.80;95.10
23233;DHT22;11785;49.500;8.288;2023-02-17T06:12:20;10.80;95.70
23233;DHT22;11785;49.500;8.288;2023-02-17T06:14:46;10.90;95.50
23233;DHT22;11785;49.500;8.288;2023-02-17T06:17:12;10.80;95.60
23233;DHT22;11785;49.500;8.288;2023-02-17T06:19:37;10.80;96.10
23233;DHT22;11785;49.500;8.288;2023-02-17T06:22:03;10.80;95.80
23233;DHT22;11785;49.500;8.288;2023-02-17T06:24:28;10.80;95.60
23233;DHT22;11785;49.500;8.288;2023-02-17T06:26:54;10.80;95.60
23233;DHT22;11785;49.500;8.288;2023-02-17T06:29:19;10.80;95.40
23233;DHT22;11785;49.500;8.288;2023-02-17T06:31:45;10.80;95.40
23233;DHT22;11785;49.500;8.288;2023-02-17T06:34:10;10.90;95.30
23233;DHT22;11785;49.500;8.288;2023-02-17T06:36:36;10.90;94.80
23233;DHT22;11785;49.500;8.288;2023-02-17T06:39:02;10.90;94.80
23233;DHT22;11785;49.500;8.288;2023-02-17T06:41:27;10.80;95.20
23233;DHT22;11785;49.500;8.288;2023-02-17T06:43:53;10.80;95.30
23233;DHT22;11785;49.500;8.288;2023-02-17T06:46:18;10.80;95.40
23233;DHT22;11785;49.500;8.288;2023-02-17T06:48:47;10.80;95.30
23233;DHT22;11785;49.500;8.288;2023-02-17T06:51:12;10.80;95.30
23233;DHT22;11785;49.500;8.288;2023-02-17T06:53:38;10.80;95.30
23233;DHT22;11785;49.500;8.288;2023-02-17T06:56:04;10.90;95.00
23233;DHT22;11785;49.500;8.288;2023-02-17T06:58:29;10.90;95.00
23233;DHT22;11785;49.500;8.288;2023-02-17T07:00:57;10.90;95.00
23233;DHT22;11785;49.500;8.288;2023-02-17T07:03:22;10.90;95.10
23233;DHT22;11785;49.500;8.288;2023-02-17T07:05:50;10.90;95.00
23233;DHT22;11785;49.500;8.288;2023-02-17T07:08:16;11.00;94.80
23233;DHT22;11785;49.500;8.288;2023-02-17T07:10:41;11.10;94.40
23233;DHT22;11785;49.500;8.288;2023-02-17T07:13:07;11.10;94.40
23233;DHT22;11785;49.500;8.288;2023-02-17T07:15:34;11.10;94.30
23233;DHT22;11785;49.500;8.288;2023-02-17T07:18:00;11.10;94.40
23233;DHT22;11785;49.500;8.288;2023-02-17T07:20:25;11.10;94.30
23233;DHT22;11785;49.500;8.288;2023-02-17T07:22:51;11.10;94.30
23233;DHT22;11785;49.500;8.288;2023-02-17T07:25:16;11.10;94.30
23233;DHT22;11785;49.500;8.288;2023-02-17T07:27:42;11.10;94.30
23233;DHT22;11785;49.500;8.288;2023-02-17T07:30:08;11.20;94.00
23233;DHT22;11785;49.500;8.288;2023-02-17T07:32:33;11.20;94.00
23233;DHT22;11785;49.500;8.288;2023-02-17T07:34:59;11.20;94.00
23233;DHT22;11785;49.500;8.288;2023-02-17T07:37:25;11.30;93.70
23233;DHT22;11785;49.500;8.288;2023-02-17T07:39:50;11.30;93.60
23233;DHT22;11785;49.500;8.288;2023-02-17T07:42:16;11.40;93.20
23233;DHT22;11785;49.500;8.288;2023-02-17T07:44:42;11.50;92.80
23233;DHT22;11785;49.500;8.288;2023-02-17T07:47:07;11.40;93.10
23233;DHT22;11785;49.500;8.288;2023-02-17T07:49:33;11.40;93.10
23233;DHT22;11785;49.500;8.288;2023-02-17T07:51:58;11.40;93.10
23233;DHT22;11785;49.500;8.288;2023-02-17T07:54:24;11.40;93.10
23233;DHT22;11785;49.500;8.288;2023-02-17T07:56:50;11.50;92.90
23233;DHT22;11785;49.500;8.288;2023-02-17T07:59:15;11.50;92.90
23233;DHT22;11785;49.500;8.288;2023-02-17T08:01:41;11.60;92.60
23233;DHT22;11785;49.500;8.288;2023-02-17T08:04:06;11.60;92.50
23233;DHT22;11785;49.500;8.288;2023-02-17T08:06:32;11.60;92.50
23233;DHT22;11785;49.500;8.288;2023-02-17T08:08:58;11.60;92.50
23233;DHT22;11785;49.500;8.288;2023-02-17T08:11:42;11.60;92.50
23233;DHT22;11785;49.500;8.288;2023-02-17T08:14:28;11.70;92.00
23233;DHT22;11785;49.500;8.288;2023-02-17T08:16:55;11.80;91.60
23233;DHT22;11785;49.500;8.288;2023-02-17T08:19:21;11.90;91.20
23233;DHT22;11785;49.500;8.288;2023-02-17T08:21:47;11.90;91.30
23233;DHT22;11785;49.500;8.288;2023-02-17T08:24:13;11.80;91.60
23233;DHT22;11785;49.500;8.288;2023-02-17T08:26:40;11.80;91.60
23233;DHT22;11785;49.500;8.288;2023-02-17T08:29:06;11.80;91.60
23233;DHT22;11785;49.500;8.288;2023-02-17T08:31:34;11.80;91.60
23233;DHT22;11785;49.500;8.288;2023-02-17T08:34:03;11.90;91.30
23233;DHT22;11785;49.500;8.288;2023-02-17T08:36:29;11.90;90.80
23233;DHT22;11785;49.500;8.288;2023-02-17T08:38:55;11.90;91.00
23233;DHT22;11785;49.500;8.288;2023-02-17T08:41:24;11.90;91.00
23233;DHT22;11785;49.500;8.288;2023-02-17T08:43:50;11.90;91.00
23233;DHT22;11785;49.500;8.288;2023-02-17T08:46:17;11.90;91.00
23233;DHT22;11785;49.500;8.288;2023-02-17T08:48:43;11.90;91.00
23233;DHT22;11785;49.500;8.288;2023-02-17T08:51:14;11.90;91.00
23233;DHT22;11785;49.500;8.288;2023-02-17T08:53:40;11.90;91.00
23233;DHT22;11785;49.500;8.288;2023-02-17T08:56:06;11.80;91.30
23233;DHT22;11785;49.500;8.288;2023-02-17T08:58:32;11.80;91.40
23233;DHT22;11785;49.500;8.288;2023-02-17T09:00:58;11.90;91.10
23233;DHT22;11785;49.500;8.288;2023-02-17T09:03:23;11.90;91.00
23233;DHT22;11785;49.500;8.288;2023-02-17T09:05:53;11.90;91.00
23233;DHT22;11785;49.500;8.288;2023-02-17T09:08:18;11.90;91.00
23233;DHT22;11785;49.500;8.288;2023-02-17T09:10:44;11.90;91.10
23233;DHT22;11785;49.500;8.288;2023-02-17T09:13:09;11.90;91.10
23233;DHT22;11785;49.500;8.288;2023-02-17T09:15:35;11.90;91.10
23233;DHT22;11785;49.500;8.288;2023-02-17T09:18:01;11.90;91.10
23233;DHT22;11785;49.500;8.288;2023-02-17T09:20:26;11.90;91.20
23233;DHT22;11785;49.500;8.288;2023-02-17T09:22:52;11.90;91.20
23233;DHT22;11785;49.500;8.288;2023-02-17T09:25:18;11.90;91.30
23233;DHT22;11785;49.500;8.288;2023-02-17T09:27:43;11.80;91.60
23233;DHT22;11785;49.500;8.288;2023-02-17T09:30:09;11.80;91.70
23233;DHT22;11785;49.500;8.288;2023-02-17T09:32:35;11.90;91.50
23233;DHT22;11785;49.500;8.288;2023-02-17T09:35:00;11.90;91.40
23233;DHT22;11785;49.500;8.288;2023-02-17T09:37:30;11.90;91.50
23233;DHT22;11785;49.500;8.288;2023-02-17T09:39:56;11.90;91.50
23233;DHT22;11785;49.500;8.288;2023-02-17T09:42:25;11.90;91.50
23233;DHT22;11785;49.500;8.288;2023-02-17T09:45:05;11.90;91.50
23233;DHT22;11785;49.500;8.288;2023-02-17T09:47:54;11.90;91.60
23233;DHT22;11785;49.500;8.288;2023-02-17T09:50:24;12.00;91.40
23233;DHT22;11785;49.500;8.288;2023-02-17T09:52:55;12.00;91.30
23233;DHT22;11785;49.500;8.288;2023-02-17T09:55:26;12.10;91.00
23233;DHT22;11785;49.500;8.288;2023-02-17T09:57:58;12.20;90.80
23233;DHT22;11785;49.500;8.288;2023-02-17T10:00:47;12.30;90.30
23233;DHT22;11785;49.500;8.288;2023-02-17T10:05:52;12.60;88.10
23233;DHT22;11785;49.500;8.288;2023-02-17T10:08:23;12.60;87.60
23233;DHT22;11785;49.500;8.288;2023-02-17T10:11:07;12.70;87.40
23233;DHT22;11785;49.500;8.288;2023-02-17T10:13:36;12.80;85.70
23233;DHT22;11785;49.500;8.288;2023-02-17T10:16:08;12.80;85.70
23233;DHT22;11785;49.500;8.288;2023-02-17T10:18:40;12.80;85.60
23233;DHT22;11785;49.500;8.288;2023-02-17T10:21:16;12.80;85.70
23233;DHT22;11785;49.500;8.288;2023-02-17T10:23:46;12.90;85.10
23233;DHT22;11785;49.500;8.288;2023-02-17T10:26:23;12.90;84.60
23233;DHT22;11785;49.500;8.288;2023-02-17T10:29:10;12.90;84.50
23233;DHT22;11785;49.500;8.288;2023-02-17T10:34:52;12.90;83.90
23233;DHT22;11785;49.500;8.288;2023-02-17T10:37:38;13.00;83.50
23233;DHT22;11785;49.500;8.288;2023-02-17T10:40:26;13.00;84.20
23233;DHT22;11785;49.500;8.288;2023-02-17T10:42:59;13.10;82.60
23233;DHT22;11785;49.500;8.288;2023-02-17T10:45:34;13.10;83.30
23233;DHT22;11785;49.500;8.288;2023-02-17T10:48:27;13.10;82.50
23233;DHT22;11785;49.500;8.288;2023-02-17T10:50:59;13.10;82.30
23233;DHT22;11785;49.500;8.288;2023-02-17T10:53:29;13.20;81.60
23233;DHT22;11785;49.500;8.288;2023-02-17T10:59:20;13.20;81.70
23233;DHT22;11785;49.500;8.288;2023-02-17T11:01:39;13.20;82.00
23233;DHT22;11785;49.500;8.288;2023-02-17T11:04:08;13.20;82.20
23233;DHT22;11785;49.500;8.288;2023-02-17T11:06:47;13.20;81.70
23233;DHT22;11785;49.500;8.288;2023-02-17T11:09:22;13.20;81.90
23233;DHT22;11785;49.500;8.288;2023-02-17T11:12:02;13.20;82.00
23233;DHT22;11785;49.500;8.288;2023-02-17T11:14:30;13.20;81.90
23233;DHT22;11785;49.500;8.288;2023-02-17T11:16:58;13.30;81.00
23233;DHT22;11785;49.500;8.288;2023-02-17T11:21:54;13.30;81.00
23233;DHT22;11785;49.500;8.288;2023-02-17T11:24:19;13.30;80.90
23233;DHT22;11785;49.500;8.288;2023-02-17T11:27:08;13.40;80.00
23233;DHT22;11785;49.500;8.288;2023-02-17T11:29:34;13.30;80.80
23233;DHT22;11785;49.500;8.288;2023-02-17T11:32:14;13.30;80.60
23233;DHT22;11785;49.500;8.288;2023-02-17T11:34:42;13.30;80.70
23233;DHT22;11785;49.500;8.288;2023-02-17T11:39:38;13.40;80.50
23233;DHT22;11785;49.500;8.288;2023-02-17T11:44:40;13.50;79.40
23233;DHT22;11785;49.500;8.288;2023-02-17T11:47:13;13.50;78.90
23233;DHT22;11785;49.500;8.288;2023-02-17T11:50:03;13.40;80.20
23233;DHT22;11785;49.500;8.288;2023-02-17T11:52:39;13.30;80.90
23233;DHT22;11785;49.500;8.288;2023-02-17T12:01:02;13.40;80.40
23233;DHT22;11785;49.500;8.288;2023-02-17T12:09:12;13.60;78.50
23233;DHT22;11785;49.500;8.288;2023-02-17T12:12:00;14.10;74.50
23233;DHT22;11785;49.500;8.288;2023-02-17T12:17:28;14.40;71.70
23233;DHT22;11785;49.500;8.288;2023-02-17T12:20:06;15.00;66.60
23233;DHT22;11785;49.500;8.288;2023-02-17T12:22:45;15.70;59.90
23233;DHT22;11785;49.500;8.288;2023-02-17T12:25:25;15.80;59.90
23233;DHT22;11785;49.500;8.288;2023-02-17T12:36:07;18.00;59.30
23233;DHT22;11785;49.500;8.288;2023-02-17T12:38:56;17.60;59.30
23233;DHT22;11785;49.500;8.288;2023-02-17T12:42:03;17.60;59.30
23233;DHT22;11785;49.500;8.288;2023-02-17T12:44:35;17.40;59.40
23233;DHT22;11785;49.500;8.288;2023-02-17T12:47:14;16.50;59.60
23233;DHT22;11785;49.500;8.288;2023-02-17T12:49:47;16.10;59.70
23233;DHT22;11785;49.500;8.288;2023-02-17T12:55:12;15.10;61.60
23233;DHT22;11785;49.500;8.288;2023-02-17T12:57:46;14.60;66.20
23233;DHT22;11785;49.500;8.288;2023-02-17T13:02:46;14.10;70.80
23233;DHT22;11785;49.500;8.288;2023-02-17T13:05:19;14.00;72.30
23233;DHT22;11785;49.500;8.288;2023-02-17T13:07:58;14.10;71.80
23233;DHT22;11785;49.500;8.288;2023-02-17T13:13:01;14.00;72.60
23233;DHT22;11785;49.500;8.288;2023-02-17T13:15:33;13.90;73.80
23233;DHT22;11785;49.500;8.288;2023-02-17T13:18:13;13.90;74.00
23233;DHT22;11785;49.500;8.288;2023-02-17T13:23:32;13.90;74.40
23233;DHT22;11785;49.500;8.288;2023-02-17T13:28:47;13.80;75.40
23233;DHT22;11785;49.500;8.288;2023-02-17T13:31:18;13.70;76.30
23233;DHT22;11785;49.500;8.288;2023-02-17T13:33:57;13.70;76.90
23233;DHT22;11785;49.500;8.288;2023-02-17T13:39:02;13.70;76.70
23233;DHT22;11785;49.500;8.288;2023-02-17T13:41:54;13.60;77.60
23233;DHT22;11785;49.500;8.288;2023-02-17T13:47:02;13.90;75.40
23233;DHT22;11785;49.500;8.288;2023-02-17T13:49:30;14.10;74.20
23233;DHT22;11785;49.500;8.288;2023-02-17T13:52:20;14.20;72.70
23233;DHT22;11785;49.500;8.288;2023-02-17T13:57:33;14.40;71.40
23233;DHT22;11785;49.500;8.288;2023-02-17T14:02:57;14.20;72.30
23233;DHT22;11785;49.500;8.288;2023-02-17T14:10:52;14.50;69.60
23233;DHT22;11785;49.500;8.288;2023-02-17T14:13:18;14.30;70.90
23233;DHT22;11785;49.500;8.288;2023-02-17T14:15:56;14.30;71.20
23233;DHT22;11785;49.500;8.288;2023-02-17T14:21:02;14.00;73.50
23233;DHT22;11785;49.500;8.288;2023-02-17T14:23:39;14.00;74.60
23233;DHT22;11785;49.500;8.288;2023-02-17T14:26:59;13.90;74.60
23233;DHT22;11785;49.500;8.288;2023-02-17T14:29:01;13.90;75.20
23233;DHT22;11785;49.500;8.288;2023-02-17T14:31:27;13.70;76.80
23233;DHT22;11785;49.500;8.288;2023-02-17T14:33:54;13.70;77.10
23233;DHT22;11785;49.500;8.288;2023-02-17T14:36:37;13.70;77.40
23233;DHT22;11785;49.500;8.288;2023-02-17T14:39:06;13.70;77.20
23233;DHT22;11785;49.500;8.288;2023-02-17T14:41:32;13.70;77.50
23233;DHT22;11785;49.500;8.288;2023-02-17T14:43:58;13.60;78.40
23233;DHT22;11785;49.500;8.288;2023-02-17T14:46:25;13.50;79.10
23233;DHT22;11785;49.500;8.288;2023-02-17T14:48:51;13.60;78.80
23233;DHT22;11785;49.500;8.288;2023-02-17T14:51:20;13.50;79.70
23233;DHT22;11785;49.500;8.288;2023-02-17T14:53:46;13.40;80.50
23233;DHT22;11785;49.500;8.288;2023-02-17T14:56:35;13.40;80.70
23233;DHT22;11785;49.500;8.288;2023-02-17T14:59:01;13.30;81.50
23233;DHT22;11785;49.500;8.288;2023-02-17T15:01:26;13.30;81.60
23233;DHT22;11785;49.500;8.288;2023-02-17T15:03:53;13.30;81.90
23233;DHT22;11785;49.500;8.288;2023-02-17T15:06:29;13.20;82.80
23233;DHT22;11785;49.500;8.288;2023-02-17T15:08:56;13.20;83.00
23233;DHT22;11785;49.500;8.288;2023-02-17T15:11:32;13.20;82.90
23233;DHT22;11785;49.500;8.288;2023-02-17T15:14:05;13.20;83.00
23233;DHT22;11785;49.500;8.288;2023-02-17T15:16:31;13.20;83.40
23233;DHT22;11785;49.500;8.288;2023-02-17T15:18:57;13.10;84.70
23233;DHT22;11785;49.500;8.288;2023-02-17T15:21:28;13.10;84.30
23233;DHT22;11785;49.500;8.288;2023-02-17T15:23:55;13.10;85.10
23233;DHT22;11785;49.500;8.288;2023-02-17T15:26:21;13.10;84.60
23233;DHT22;11785;49.500;8.288;2023-02-17T15:28:47;13.10;84.70
23233;DHT22;11785;49.500;8.288;2023-02-17T15:31:14;13.10;84.80
23233;DHT22;11785;49.500;8.288;2023-02-17T15:33:43;13.10;84.80
23233;DHT22;11785;49.500;8.288;2023-02-17T15:36:13;13.10;85.00
23233;DHT22;11785;49.500;8.288;2023-02-17T15:38:40;13.10;85.00
23233;DHT22;11785;49.500;8.288;2023-02-17T15:41:21;13.10;85.00
23233;DHT22;11785;49.500;8.288;2023-02-17T15:43:49;13.10;84.90
23233;DHT22;11785;49.500;8.288;2023-02-17T15:46:17;13.10;85.00
23233;DHT22;11785;49.500;8.288;2023-02-17T15:48:44;13.10;85.20
23233;DHT22;11785;49.500;8.288;2023-02-17T15:51:14;13.00;85.80
23233;DHT22;11785;49.500;8.288;2023-02-17T15:53:42;13.00;85.80
23233;DHT22;11785;49.500;8.288;2023-02-17T15:58:44;13.00;85.80
23233;DHT22;11785;49.500;8.288;2023-02-17T16:01:32;13.00;85.90
23233;DHT22;11785;49.500;8.288;2023-02-17T16:03:58;13.00;86.00
23233;DHT22;11785;49.500;8.288;2023-02-17T16:06:28;13.00;86.00
23233;DHT22;11785;49.500;8.288;2023-02-17T16:08:55;13.00;86.00
23233;DHT22;11785;49.500;8.288;2023-02-17T16:11:23;13.00;86.20
23233;DHT22;11785;49.500;8.288;2023-02-17T16:13:49;13.00;86.00
23233;DHT22;11785;49.500;8.288;2023-02-17T16:16:24;13.00;86.10
23233;DHT22;11785;49.500;8.288;2023-02-17T16:18:50;13.00;85.80
23233;DHT22;11785;49.500;8.288;2023-02-17T16:21:16;13.00;85.80
23233;DHT22;11785;49.500;8.288;2023-02-17T16:23:42;13.00;85.90
23233;DHT22;11785;49.500;8.288;2023-02-17T16:28:39;13.00;85.80
23233;DHT22;11785;49.500;8.288;2023-02-17T16:31:04;13.00;85.80
23233;DHT22;11785;49.500;8.288;2023-02-17T16:33:30;13.00;85.80
23233;DHT22;11785;49.500;8.288;2023-02-17T16:35:56;13.00;85.90
23233;DHT22;11785;49.500;8.288;2023-02-17T16:38:22;13.00;85.90
23233;DHT22;11785;49.500;8.288;2023-02-17T16:40:50;13.00;86.00
23233;DHT22;11785;49.500;8.288;2023-02-17T16:43:26;12.90;86.40
23233;DHT22;11785;49.500;8.288;2023-02-17T16:45:56;12.90;86.60
23233;DHT22;11785;49.500;8.288;2023-02-17T16:48:26;12.90;86.70
23233;DHT22;11785;49.500;8.288;2023-02-17T16:50:52;12.90;86.60
23233;DHT22;11785;49.500;8.288;2023-02-17T16:53:18;12.90;86.40
23233;DHT22;11785;49.500;8.288;2023-02-17T16:55:44;13.00;85.50
23233;DHT22;11785;49.500;8.288;2023-02-17T16:58:21;13.00;85.50
23233;DHT22;11785;49.500;8.288;2023-02-17T17:00:49;13.00;85.30
23233;DHT22;11785;49.500;8.288;2023-02-17T17:03:16;13.00;85.20
23233;DHT22;11785;49.500;8.288;2023-02-17T17:05:43;13.00;85.20
23233;DHT22;11785;49.500;8.288;2023-02-17T17:08:13;13.00;85.00
23233;DHT22;11785;49.500;8.288;2023-02-17T17:10:41;13.00;85.00
23233;DHT22;11785;49.500;8.288;2023-02-17T17:13:07;13.00;85.10
23233;DHT22;11785;49.500;8.288;2023-02-17T17:15:39;12.90;85.90
23233;DHT22;11785;49.500;8.288;2023-02-17T17:18:07;12.90;86.10